Allen Army Airfield
PABI : now visible

Airfield :











YOU CAN JOIN US ON...

 
LOGIN :

Register | Disclaimer

   EN    FR    IT 

 









Legend :    VFR   Marginal VFR   IFR   Intensive IFR   Very Intensive IFR
Visi :
Ceiling :
>= 8 km
>= 3000ft
5 to 8 km
1000 to 3000 ft
1500m to 5 km
500 to 1000 ft
800 to 1500m
200 to 500 ft
< 800m
< 200 ft
Symbols :   Thunderstorms  Fog  Heavy snow  Heavy precipitations  Wind > 20 kt






- Airport Elevation : 1291 ft
- IATA code : BIG


PABI - Allen Army

CURRENT METAR :
  • 271453Z AUTO 11020KT 10SM CLR M08/M12 A2951 RMK AO2 PK WND 10027/1434 SLP030 T10831117 58014 TSNO $

EXPIRED METARs :
  • 271353Z AUTO 12017G23KT 10SM CLR M08/M11 A2953 RMK AO2 SLP037 T10831111 TSNO $
  • 271253Z AUTO 11016KT 10SM CLR M08/M11 A2954 RMK AO2 SLP037 T10831111 TSNO $
  • 271153Z AUTO 12016KT 10SM CLR M08/M11 A2955 RMK AO2 SLP040 70006 I6000 T10831111 11083 21161 58012 TSNO $

TAF TAF PABI
Valid from the 27 at 06:00 until the 28 at 12:00 UTC


270600Z 2706/2812 VRB06KT 9999 SCT080 BKN150 QNH2950INS
BECMG 2717/2718 13020G35KT 9999 FEW120 510007 QNH2928INS
BECMG 2807/2808 10010G18KT 9999 FEW140 TXM09/2722Z TNM14/2711Z LAST NO AMDS AFT 2706 NEXT 3014 FOR MIL USE ONLY
PAZA FIR / North America



MET'MAP, your aeronautical weather chart ! - Copyright ORBIFLY December 2007 - Disclaimer

ORBIFLY MET'MAP TEAM :

Programming & Development : Alexandra Zaïnal
Concept & original design : Baudouin d'Aumeries
Assistance for programming : Marc-Olivier Méhu
Technical & hardware support : Manuel Goepfert

Contact : metmap@orbifly.com




SOURCES & CREDITS :

   NOAA       Earth
Advisory